Time;durP1;ratioP1;P1;durP2;ratioP2;P2;SDS_P1;SDS_P2;PMS_P1;PMS_P2;Temp;Humidity;BMP_temperature;BMP_pressure;BME280_temperature;BME280_humidity;BME280_pressure;Samples;Min_cycle;Max_cycle;Signal;HPM_P1;HPM_P2
2020/12/14 00:02:14;;;;;;;5.87;2.67;;;3.30;99.90;;;;;;1914938;74;21548;-80
2020/12/14 00:04:40;;;;;;;5.78;3.08;;;3.30;99.90;;;;;;1913364;74;21170;-78
2020/12/14 00:07:06;;;;;;;5.80;3.37;;;3.30;99.90;;;;;;1913537;74;21139;-80
2020/12/14 00:09:32;;;;;;;4.00;3.10;;;3.30;99.90;;;;;;1907577;74;21149;-80
2020/12/14 00:11:58;;;;;;;4.25;2.87;;;3.20;99.90;;;;;;1908839;74;21070;-80
2020/12/14 00:14:24;;;;;;;6.67;3.42;;;3.10;99.90;;;;;;1914176;74;21116;-79
2020/12/14 00:16:50;;;;;;;5.75;3.05;;;3.20;99.90;;;;;;1914169;74;21152;-78
2020/12/14 00:19:16;;;;;;;2.72;2.52;;;3.20;99.90;;;;;;1917203;74;21249;-79
2020/12/14 00:21:42;;;;;;;4.53;3.20;;;3.10;99.90;;;;;;1914184;74;21149;-80
2020/12/14 00:24:09;;;;;;;6.15;3.00;;;3.10;99.90;;;;;;1907135;74;21043;-79
2020/12/14 00:26:35;;;;;;;4.28;2.90;;;2.90;99.90;;;;;;1914893;74;21442;-79
2020/12/14 00:29:01;;;;;;;5.17;3.35;;;2.90;99.90;;;;;;1914780;74;21473;-79
2020/12/14 00:31:27;;;;;;;5.62;3.22;;;2.90;99.90;;;;;;1914597;74;21070;-79
2020/12/14 00:33:53;;;;;;;6.20;3.02;;;2.90;99.90;;;;;;1914779;74;21066;-79
2020/12/14 00:36:19;;;;;;;5.97;3.42;;;2.80;99.90;;;;;;1917050;74;21082;-79
2020/12/14 00:38:45;;;;;;;7.60;3.35;;;2.80;99.90;;;;;;1914116;74;21132;-78
2020/12/14 00:41:11;;;;;;;5.95;3.15;;;2.80;99.90;;;;;;1911031;74;21070;-79
2020/12/14 00:43:38;;;;;;;13.25;7.40;;;2.70;99.90;;;;;;1907275;74;21048;-79
2020/12/14 00:46:06;;;;;;;9.50;3.65;;;2.70;99.90;;;;;;1914907;74;21066;-79
2020/12/14 00:48:31;;;;;;;7.83;4.35;;;2.70;99.90;;;;;;1914525;74;21207;-79
2020/12/14 00:50:58;;;;;;;6.97;5.00;;;2.60;99.90;;;;;;1912660;74;21066;-79
2020/12/14 00:53:24;;;;;;;6.17;3.77;;;2.50;99.90;;;;;;1917019;74;21058;-79
2020/12/14 00:55:50;;;;;;;6.78;3.67;;;2.40;99.90;;;;;;1915105;74;21050;-78
2020/12/14 00:58:16;;;;;;;4.25;3.25;;;2.40;99.90;;;;;;1914917;74;21132;-78
2020/12/14 01:00:42;;;;;;;7.08;4.30;;;2.40;99.90;;;;;;1914609;74;21070;-78
2020/12/14 01:03:08;;;;;;;4.87;3.87;;;2.50;99.90;;;;;;1912968;74;21038;-78
2020/12/14 01:05:34;;;;;;;5.12;3.83;;;2.50;99.90;;;;;;1913623;74;21066;-79
2020/12/14 01:08:00;;;;;;;5.85;4.17;;;2.50;99.90;;;;;;1914844;74;21144;-78
2020/12/14 01:10:28;;;;;;;6.12;3.83;;;2.40;99.90;;;;;;1914615;74;22072;-77
2020/12/14 01:12:54;;;;;;;3.87;3.45;;;2.30;99.90;;;;;;1914212;74;21474;-79
2020/12/14 01:15:20;;;;;;;7.20;3.90;;;2.40;99.90;;;;;;1914149;74;21705;-78
2020/12/14 01:17:47;;;;;;;6.87;3.72;;;2.40;99.90;;;;;;1913313;74;21206;-78
2020/12/14 01:20:14;;;;;;;5.00;3.75;;;2.40;99.90;;;;;;1913783;74;21152;-78
2020/12/14 01:22:40;;;;;;;6.10;4.08;;;2.40;99.90;;;;;;1914395;74;21147;-79
2020/12/14 01:25:06;;;;;;;4.90;3.85;;;2.40;99.90;;;;;;1913702;74;21073;-79
2020/12/14 01:27:32;;;;;;;4.85;3.60;;;2.30;99.90;;;;;;1913447;74;21115;-78
2020/12/14 01:29:58;;;;;;;4.10;3.05;;;2.40;99.90;;;;;;1912171;74;21129;-78
2020/12/14 01:32:25;;;;;;;4.80;3.60;;;2.40;99.90;;;;;;1912587;74;21027;-78
2020/12/14 01:34:51;;;;;;;4.67;3.65;;;2.40;99.90;;;;;;1912143;74;21051;-78
2020/12/14 01:37:17;;;;;;;3.55;3.15;;;2.30;99.90;;;;;;1913108;74;21447;-78
2020/12/14 01:39:43;;;;;;;5.03;3.77;;;2.20;99.90;;;;;;1914179;74;21513;-77
2020/12/14 01:42:09;;;;;;;4.28;3.60;;;2.30;99.90;;;;;;1915100;74;21520;-78
2020/12/14 01:44:36;;;;;;;5.42;3.80;;;2.30;99.90;;;;;;1912884;75;21070;-79
2020/12/14 01:47:02;;;;;;;4.83;3.37;;;2.30;99.90;;;;;;1912899;74;21116;-78
2020/12/14 01:49:28;;;;;;;4.22;3.77;;;2.20;99.90;;;;;;1913036;74;21131;-78
2020/12/14 01:51:54;;;;;;;6.17;4.10;;;2.20;99.90;;;;;;1913771;74;21085;-78
2020/12/14 01:54:20;;;;;;;3.62;3.10;;;2.20;99.90;;;;;;1877205;75;21200;-77
2020/12/14 01:56:47;;;;;;;5.72;4.05;;;2.20;99.90;;;;;;1909945;74;21403;-77
2020/12/14 01:59:13;;;;;;;6.55;3.40;;;2.20;99.90;;;;;;1910338;74;21422;-78
2020/12/14 02:01:39;;;;;;;11.33;3.42;;;2.10;99.90;;;;;;1906711;73;21666;-77
2020/12/14 02:04:05;;;;;;;4.05;3.37;;;2.00;99.90;;;;;;1898200;74;21152;-78
2020/12/14 02:06:31;;;;;;;5.00;3.55;;;2.00;99.90;;;;;;1902950;73;21132;-78
2020/12/14 02:08:57;;;;;;;7.00;3.10;;;2.00;99.90;;;;;;1900143;73;21073;-78
2020/12/14 02:11:23;;;;;;;4.03;3.33;;;2.00;99.90;;;;;;1909062;73;21075;-78
2020/12/14 02:13:49;;;;;;;16.10;3.50;;;2.00;99.90;;;;;;1893047;73;22494;-77
2020/12/14 02:16:16;;;;;;;5.00;3.55;;;2.10;99.90;;;;;;1910581;73;21091;-77
2020/12/14 02:18:42;;;;;;;4.00;3.40;;;2.00;99.90;;;;;;1903011;74;21067;-79
2020/12/14 02:21:08;;;;;;;5.45;3.75;;;2.10;99.90;;;;;;1901480;73;21203;-78
2020/12/14 02:23:36;;;;;;;7.42;4.25;;;2.10;99.90;;;;;;1907342;73;21248;-78
2020/12/14 02:26:02;;;;;;;7.45;4.53;;;2.00;99.90;;;;;;1898523;73;21102;-78
2020/12/14 02:28:28;;;;;;;6.28;4.05;;;2.00;99.90;;;;;;1865360;73;21078;-78
2020/12/14 02:30:54;;;;;;;6.00;4.25;;;2.00;99.90;;;;;;1889917;73;21039;-78
2020/12/14 02:33:20;;;;;;;5.75;3.85;;;1.90;99.90;;;;;;1913177;73;21052;-79
2020/12/14 02:35:46;;;;;;;14.25;4.12;;;1.80;99.90;;;;;;1902602;74;21147;-77
2020/12/14 02:38:12;;;;;;;4.80;3.58;;;1.80;99.90;;;;;;1890705;73;21131;-79
2020/12/14 02:40:38;;;;;;;8.75;4.03;;;1.80;99.90;;;;;;1908412;73;21086;-78
2020/12/14 02:43:05;;;;;;;5.12;3.45;;;1.80;99.90;;;;;;1905060;73;21481;-79
2020/12/14 02:45:31;;;;;;;4.45;3.22;;;1.80;99.90;;;;;;1893506;73;21493;-77
2020/12/14 02:47:57;;;;;;;4.75;3.65;;;1.80;99.90;;;;;;1881348;73;21548;-78
2020/12/14 02:50:23;;;;;;;4.97;3.52;;;1.80;99.90;;;;;;1888020;74;21067;-78
2020/12/14 02:52:49;;;;;;;4.17;3.27;;;1.80;99.90;;;;;;1897738;73;21074;-78
2020/12/14 02:55:15;;;;;;;5.17;3.72;;;1.90;99.90;;;;;;1910623;73;21128;-78
2020/12/14 02:57:41;;;;;;;5.60;3.72;;;1.70;99.90;;;;;;1896503;73;21124;-77
2020/12/14 03:00:07;;;;;;;7.80;3.98;;;1.70;99.90;;;;;;1893954;73;21067;-77
2020/12/14 03:02:33;;;;;;;5.33;3.92;;;1.60;99.90;;;;;;1897707;73;21078;-78
2020/12/14 03:05:00;;;;;;;7.50;3.67;;;1.70;99.90;;;;;;1903863;73;21070;-79
2020/12/14 03:07:26;;;;;;;6.42;3.15;;;1.70;99.90;;;;;;1905950;73;21046;-79
2020/12/14 03:09:52;;;;;;;5.55;3.92;;;1.80;99.90;;;;;;1905756;73;21113;-79
2020/12/14 03:12:18;;;;;;;5.75;3.62;;;1.80;99.90;;;;;;1890756;73;21204;-79
2020/12/14 03:14:44;;;;;;;6.20;3.92;;;1.70;99.90;;;;;;1905963;73;21131;-79
2020/12/14 03:17:10;;;;;;;6.12;3.80;;;1.70;99.90;;;;;;1902754;74;21454;-79
2020/12/14 03:19:36;;;;;;;4.75;3.83;;;1.60;99.90;;;;;;1895542;73;21494;-79
2020/12/14 03:22:02;;;;;;;5.87;4.15;;;1.70;99.90;;;;;;1899265;73;21625;-78
2020/12/14 03:24:29;;;;;;;4.50;3.40;;;1.60;99.90;;;;;;1893854;73;21191;-78
2020/12/14 03:26:55;;;;;;;3.90;3.33;;;1.50;99.90;;;;;;1901157;73;21042;-78
2020/12/14 03:29:21;;;;;;;3.75;3.22;;;1.50;99.90;;;;;;1910891;74;21075;-78
2020/12/14 03:31:47;;;;;;;7.28;3.98;;;1.50;99.90;;;;;;1901892;74;21200;-79
2020/12/14 03:34:13;;;;;;;5.42;3.33;;;1.50;99.90;;;;;;1903253;73;21079;-78
2020/12/14 03:36:39;;;;;;;5.58;3.67;;;1.40;99.90;;;;;;1897327;73;21148;-78
2020/12/14 03:39:07;;;;;;;5.08;3.62;;;1.40;99.90;;;;;;1904512;73;21144;-79
2020/12/14 03:41:33;;;;;;;3.67;2.83;;;1.40;99.90;;;;;;1905500;73;21079;-77
2020/12/14 03:43:59;;;;;;;4.08;3.08;;;1.40;99.90;;;;;;1913115;73;21071;-78
2020/12/14 03:46:26;;;;;;;6.00;3.45;;;1.30;99.90;;;;;;1909249;73;21040;-78
2020/12/14 03:48:55;;;;;;;4.60;3.22;;;1.30;99.90;;;;;;1904897;73;21478;-79
2020/12/14 03:51:22;;;;;;;4.22;3.42;;;1.30;99.90;;;;;;1904292;73;21081;-78
2020/12/14 03:53:48;;;;;;;6.95;4.08;;;1.20;99.90;;;;;;1905315;73;21197;-78
2020/12/14 03:56:14;;;;;;;6.05;3.30;;;1.20;99.90;;;;;;1911916;73;21185;-77
2020/12/14 03:58:40;;;;;;;5.70;3.60;;;1.10;99.90;;;;;;1897499;73;21077;-78
2020/12/14 04:01:06;;;;;;;7.83;4.10;;;1.10;99.90;;;;;;1892255;73;21074;-79
2020/12/14 04:03:32;;;;;;;6.95;4.37;;;1.10;99.90;;;;;;1889175;73;21139;-78
2020/12/14 04:05:58;;;;;;;12.33;3.50;;;1.00;99.90;;;;;;1903088;73;21048;-79
2020/12/14 04:08:24;;;;;;;8.75;3.83;;;1.00;99.90;;;;;;1905834;74;21203;-79
2020/12/14 04:10:51;;;;;;;7.78;3.90;;;1.00;99.90;;;;;;1894937;73;21143;-78
2020/12/14 04:13:17;;;;;;;5.35;3.85;;;1.00;99.90;;;;;;1904603;73;21074;-79
2020/12/14 04:15:43;;;;;;;11.45;4.08;;;1.00;99.90;;;;;;1895406;74;21080;-79
2020/12/14 04:18:09;;;;;;;5.60;3.75;;;0.90;99.90;;;;;;1910706;74;21201;-79
2020/12/14 04:20:36;;;;;;;4.25;3.37;;;0.90;99.90;;;;;;1907582;73;21086;-79
2020/12/14 04:23:02;;;;;;;5.75;3.75;;;0.90;99.90;;;;;;1903010;73;21078;-78
2020/12/14 04:25:28;;;;;;;8.15;3.27;;;0.90;99.90;;;;;;1894018;73;21043;-78
2020/12/14 04:27:58;;;;;;;5.35;3.75;;;1.00;99.90;;;;;;1901678;73;21042;-79
2020/12/14 04:30:22;;;;;;;5.78;3.77;;;0.90;99.90;;;;;;1901438;73;21097;-79
2020/12/14 04:32:48;;;;;;;14.80;3.85;;;0.80;99.90;;;;;;1901994;73;21069;-79
2020/12/14 04:35:14;;;;;;;7.25;3.90;;;0.80;99.90;;;;;;1907752;73;21075;-78
2020/12/14 04:37:40;;;;;;;6.07;3.13;;;0.70;99.90;;;;;;1908403;73;21086;-78
2020/12/14 04:40:06;;;;;;;5.97;3.87;;;0.80;99.90;;;;;;1903443;73;21482;-78
2020/12/14 04:42:32;;;;;;;5.12;3.62;;;0.80;99.90;;;;;;1900303;73;21489;-79
2020/12/14 04:44:58;;;;;;;6.10;3.83;;;0.80;99.90;;;;;;1901275;73;21499;-78
2020/12/14 04:47:25;;;;;;;5.10;3.37;;;0.90;99.90;;;;;;1895016;73;21047;-79
2020/12/14 04:49:51;;;;;;;7.08;3.67;;;0.90;99.90;;;;;;1901083;74;21042;-78
2020/12/14 04:52:17;;;;;;;6.70;3.90;;;0.80;99.90;;;;;;1905465;73;21078;-78
2020/12/14 04:54:43;;;;;;;7.15;3.87;;;0.90;99.90;;;;;;1906250;73;21078;-78
2020/12/14 04:57:09;;;;;;;6.65;4.45;;;0.80;99.90;;;;;;1900519;73;21112;-78
2020/12/14 04:59:35;;;;;;;8.43;3.90;;;0.80;99.90;;;;;;1896146;73;21147;-79
2020/12/14 05:02:01;;;;;;;6.33;4.12;;;0.80;99.90;;;;;;1895430;73;21066;-79
2020/12/14 05:04:27;;;;;;;5.75;3.50;;;0.80;99.90;;;;;;1904819;73;21144;-79
2020/12/14 05:06:56;;;;;;;4.72;3.60;;;0.80;99.90;;;;;;1892834;74;21039;-79
2020/12/14 05:09:21;;;;;;;4.75;3.05;;;0.80;99.90;;;;;;1885347;73;21111;-79
2020/12/14 05:11:47;;;;;;;6.60;3.77;;;0.80;99.90;;;;;;1898111;74;21179;-78
2020/12/14 05:14:14;;;;;;;6.00;3.37;;;0.70;99.90;;;;;;1898114;73;21075;-79
2020/12/14 05:16:40;;;;;;;5.87;3.60;;;0.80;99.90;;;;;;1900364;73;21063;-78
2020/12/14 05:19:06;;;;;;;5.33;3.60;;;0.80;99.90;;;;;;1891918;73;21148;-78
2020/12/14 05:21:32;;;;;;;5.35;3.15;;;0.80;99.90;;;;;;1905926;74;21212;-79
2020/12/14 05:23:58;;;;;;;9.88;3.90;;;0.70;99.90;;;;;;1880877;74;21043;-79
2020/12/14 05:26:24;;;;;;;4.95;3.45;;;0.80;99.90;;;;;;1900855;74;21466;-79
2020/12/14 05:28:50;;;;;;;5.70;3.52;;;0.80;99.90;;;;;;1905250;74;22958;-78
2020/12/14 05:31:16;;;;;;;6.20;3.62;;;0.70;99.90;;;;;;1903954;73;21609;-78
2020/12/14 05:33:43;;;;;;;4.60;3.08;;;0.70;99.90;;;;;;1902754;73;21070;-79
2020/12/14 05:36:09;;;;;;;4.53;3.33;;;0.70;99.90;;;;;;1908703;73;21079;-78
2020/12/14 05:38:35;;;;;;;5.65;3.08;;;0.70;99.90;;;;;;1891608;73;21144;-77
2020/12/14 05:41:01;;;;;;;5.95;3.67;;;0.70;99.90;;;;;;1886903;74;21039;-77
2020/12/14 05:43:27;;;;;;;5.78;3.65;;;0.60;99.90;;;;;;1890984;73;21126;-77
2020/12/14 05:45:53;;;;;;;5.20;3.70;;;0.70;99.90;;;;;;1909080;73;21079;-78
2020/12/14 05:48:19;;;;;;;8.25;3.77;;;0.70;99.90;;;;;;1900700;73;21504;-77
2020/12/14 05:50:45;;;;;;;6.62;3.37;;;0.70;99.90;;;;;;1904433;73;21459;-79
2020/12/14 05:53:12;;;;;;;5.67;3.60;;;0.70;99.90;;;;;;1902779;73;21507;-78
2020/12/14 05:55:38;;;;;;;5.75;3.33;;;0.60;99.90;;;;;;1901983;73;21072;-77
2020/12/14 05:58:04;;;;;;;4.83;3.90;;;0.70;99.90;;;;;;1905560;74;21074;-78
2020/12/14 06:00:31;;;;;;;4.47;3.12;;;0.70;99.90;;;;;;1901674;74;21070;-79
2020/12/14 06:02:57;;;;;;;4.10;3.02;;;0.70;99.90;;;;;;1914620;74;21102;-78
2020/12/14 06:05:23;;;;;;;6.62;3.60;;;0.60;99.90;;;;;;1915489;74;21152;-77
2020/12/14 06:07:49;;;;;;;3.27;2.83;;;0.50;99.90;;;;;;1914685;74;21035;-77
2020/12/14 06:10:15;;;;;;;4.83;3.45;;;0.40;99.90;;;;;;1885135;75;21462;-77
2020/12/14 06:12:42;;;;;;;6.62;3.55;;;0.40;99.90;;;;;;1914161;74;21379;-78
2020/12/14 06:15:08;;;;;;;5.00;3.10;;;0.50;99.90;;;;;;1915135;73;21082;-76
2020/12/14 06:17:34;;;;;;;3.80;3.25;;;0.60;99.90;;;;;;1915609;74;21050;-77
2020/12/14 06:20:00;;;;;;;7.58;4.00;;;0.70;99.90;;;;;;1918611;74;21077;-77
2020/12/14 06:22:27;;;;;;;3.87;3.02;;;0.60;99.90;;;;;;1913404;74;21073;-75
2020/12/14 06:24:53;;;;;;;5.12;3.65;;;0.60;99.90;;;;;;1909192;74;21529;-76
2020/12/14 06:27:19;;;;;;;6.30;3.08;;;0.60;99.90;;;;;;1913480;74;21604;-76
2020/12/14 06:29:45;;;;;;;13.20;4.12;;;0.60;99.90;;;;;;1914420;74;21439;-77
2020/12/14 06:32:11;;;;;;;6.87;3.75;;;0.50;99.90;;;;;;1911997;74;21055;-77
2020/12/14 06:34:38;;;;;;;5.35;3.45;;;0.40;99.90;;;;;;1914694;74;21050;-76
2020/12/14 06:37:04;;;;;;;5.20;3.80;;;0.50;99.90;;;;;;1915135;74;21069;-77
2020/12/14 06:39:30;;;;;;;5.47;3.80;;;0.40;99.90;;;;;;1913300;74;21062;-74
2020/12/14 06:41:56;;;;;;;5.97;3.20;;;0.50;99.90;;;;;;1914691;74;21149;-77
2020/12/14 06:44:24;;;;;;;4.87;3.45;;;0.60;99.90;;;;;;1916680;74;21543;-76
2020/12/14 06:46:50;;;;;;;6.33;3.90;;;0.50;99.90;;;;;;1907985;74;21303;-76
2020/12/14 06:49:16;;;;;;;5.40;3.75;;;0.40;99.90;;;;;;1912146;74;21185;-77
2020/12/14 06:51:42;;;;;;;12.98;3.77;;;0.50;99.90;;;;;;1913076;74;21035;-77
2020/12/14 06:54:08;;;;;;;6.42;4.20;;;0.50;99.90;;;;;;1913870;74;21070;-76
2020/12/14 06:56:34;;;;;;;5.00;3.72;;;0.50;99.90;;;;;;1913880;74;21430;-76
2020/12/14 06:59:00;;;;;;;6.58;3.62;;;0.50;99.90;;;;;;1915498;74;21486;-77
2020/12/14 07:01:26;;;;;;;4.72;3.67;;;0.50;99.90;;;;;;1913502;74;21536;-75
2020/12/14 07:03:53;;;;;;;7.75;4.10;;;0.50;99.90;;;;;;1913063;73;21109;-81
2020/12/14 07:06:19;;;;;;;9.63;3.87;;;0.40;99.90;;;;;;1915180;74;21122;-76
2020/12/14 07:08:45;;;;;;;9.83;4.40;;;0.40;99.90;;;;;;1915729;73;21039;-77
2020/12/14 07:11:11;;;;;;;5.92;3.62;;;0.50;99.90;;;;;;1915401;73;21140;-74
2020/12/14 07:13:37;;;;;;;9.03;4.60;;;0.50;99.90;;;;;;1904159;74;21121;-76
2020/12/14 07:16:03;;;;;;;8.75;5.30;;;0.50;99.90;;;;;;1908429;74;21167;-74
2020/12/14 07:18:29;;;;;;;8.88;4.85;;;0.50;99.90;;;;;;1915932;74;21078;-76
2020/12/14 07:20:55;;;;;;;6.90;4.62;;;0.60;99.90;;;;;;1909131;74;21279;-76
2020/12/14 07:23:22;;;;;;;7.47;4.55;;;0.60;99.90;;;;;;1902084;74;21129;-75
2020/12/14 07:25:48;;;;;;;10.40;4.37;;;0.60;99.90;;;;;;1896076;74;21051;-77
2020/12/14 07:28:14;;;;;;;11.03;5.22;;;0.60;99.90;;;;;;1896396;74;21090;-75
2020/12/14 07:30:40;;;;;;;8.23;4.67;;;0.60;99.90;;;;;;1887767;75;21136;-76
2020/12/14 07:33:06;;;;;;;11.03;4.58;;;0.60;99.90;;;;;;1913515;74;21211;-75
2020/12/14 07:35:32;;;;;;;8.38;4.80;;;0.60;99.90;;;;;;1896890;74;21082;-77
2020/12/14 07:37:58;;;;;;;7.72;4.10;;;0.70;99.90;;;;;;1913867;75;21054;-75
2020/12/14 07:40:24;;;;;;;5.62;4.12;;;0.70;99.90;;;;;;1892993;74;21128;-77
2020/12/14 07:42:51;;;;;;;7.08;4.53;;;0.70;99.90;;;;;;1915424;74;21083;-75
2020/12/14 07:45:21;;;;;;;6.87;4.17;;;0.70;99.90;;;;;;1896039;74;21046;-76
2020/12/14 07:47:44;;;;;;;6.97;4.33;;;0.70;99.90;;;;;;1912198;74;21095;-75
2020/12/14 07:50:11;;;;;;;6.45;3.95;;;0.70;99.90;;;;;;1906228;74;21074;-74
2020/12/14 07:52:37;;;;;;;9.85;4.33;;;0.80;99.90;;;;;;1912430;74;21070;-76
2020/12/14 07:55:03;;;;;;;12.00;5.47;;;0.80;99.90;;;;;;1896788;74;21226;-76
2020/12/14 07:57:32;;;;;;;7.53;4.95;;;0.80;99.90;;;;;;1907865;74;21058;-76
2020/12/14 07:59:58;;;;;;;11.93;5.77;;;0.80;99.90;;;;;;1916215;74;21494;-75
2020/12/14 08:02:25;;;;;;;9.13;5.62;;;0.90;99.90;;;;;;1915190;74;21502;-76
2020/12/14 08:04:51;;;;;;;7.70;5.25;;;1.00;99.90;;;;;;1910734;74;21047;-76
2020/12/14 08:07:17;;;;;;;10.78;5.22;;;1.10;99.90;;;;;;1885340;74;21203;-75
2020/12/14 08:09:43;;;;;;;14.15;5.15;;;1.20;99.90;;;;;;1907876;73;21220;-75
2020/12/14 08:12:09;;;;;;;17.50;5.90;;;1.30;99.90;;;;;;1908745;74;21210;-75
2020/12/14 08:14:36;;;;;;;15.93;6.03;;;1.20;99.90;;;;;;1907808;74;21073;-75
2020/12/14 08:17:02;;;;;;;8.08;5.72;;;1.20;99.90;;;;;;1910232;74;21043;-77
2020/12/14 08:19:28;;;;;;;10.08;5.28;;;1.40;99.90;;;;;;1903330;74;21214;-76
2020/12/14 08:21:54;;;;;;;8.88;5.50;;;1.50;99.90;;;;;;1909122;74;21638;-75
2020/12/14 08:24:20;;;;;;;22.55;6.55;;;1.50;99.90;;;;;;1897807;74;21524;-76
2020/12/14 08:26:46;;;;;;;22.67;6.92;;;1.50;99.90;;;;;;1907044;74;21493;-75
2020/12/14 08:29:13;;;;;;;13.03;6.33;;;1.60;99.90;;;;;;1903385;74;21062;-77
2020/12/14 08:31:39;;;;;;;12.43;6.83;;;1.70;99.90;;;;;;1907683;75;21065;-76
2020/12/14 08:34:05;;;;;;;12.07;6.42;;;1.80;99.90;;;;;;1896329;74;21050;-76
2020/12/14 08:36:31;;;;;;;8.65;5.45;;;1.90;99.90;;;;;;1916060;74;21123;-76
2020/12/14 08:38:57;;;;;;;12.28;6.15;;;2.10;99.90;;;;;;1909206;75;21069;-76
2020/12/14 08:41:23;;;;;;;9.75;5.75;;;2.30;99.90;;;;;;1898175;74;21166;-76
2020/12/14 08:43:49;;;;;;;12.28;6.00;;;2.40;99.90;;;;;;1910272;75;21081;-76
2020/12/14 08:46:16;;;;;;;10.23;5.28;;;2.50;99.90;;;;;;1894345;74;21071;-76
2020/12/14 08:48:42;;;;;;;10.20;4.90;;;2.70;99.90;;;;;;1898951;75;21062;-76
2020/12/14 08:51:08;;;;;;;10.53;6.03;;;2.90;99.90;;;;;;1886929;74;21052;-76
2020/12/14 08:53:34;;;;;;;28.55;6.47;;;3.00;99.90;;;;;;1896973;74;21142;-74
2020/12/14 08:56:00;;;;;;;8.95;5.50;;;3.20;99.90;;;;;;1914464;74;21070;-73
2020/12/14 08:58:26;;;;;;;13.75;6.90;;;3.40;99.90;;;;;;1909560;73;21079;-75
2020/12/14 09:00:52;;;;;;;11.68;6.53;;;3.50;99.90;;;;;;1897857;74;21140;-75
2020/12/14 09:03:18;;;;;;;11.15;6.35;;;3.60;99.90;;;;;;1888334;74;21086;-75
2020/12/14 09:05:45;;;;;;;16.95;7.00;;;3.70;99.90;;;;;;1903452;74;21052;-75
2020/12/14 09:08:11;;;;;;;8.88;6.40;;;3.80;99.90;;;;;;1914004;74;21074;-74
2020/12/14 09:10:37;;;;;;;13.15;6.55;;;4.00;99.90;;;;;;1908816;74;21624;-74
2020/12/14 09:13:03;;;;;;;12.82;6.42;;;4.30;99.90;;;;;;1908519;74;21470;-75
2020/12/14 09:15:29;;;;;;;15.50;6.53;;;4.20;99.90;;;;;;1915290;74;21540;-73
2020/12/14 09:17:55;;;;;;;12.65;6.67;;;4.60;99.90;;;;;;1909585;75;21487;-74
2020/12/14 09:20:21;;;;;;;9.78;5.83;;;5.00;99.90;;;;;;1903791;74;21034;-73
2020/12/14 09:22:47;;;;;;;7.87;5.83;;;5.30;99.90;;;;;;1909754;75;21114;-74
2020/12/14 09:25:13;;;;;;;12.58;4.87;;;5.60;99.90;;;;;;1909172;74;21094;-75
2020/12/14 09:27:40;;;;;;;6.50;4.15;;;5.70;99.90;;;;;;1884525;74;21124;-75
2020/12/14 09:30:06;;;;;;;11.05;4.42;;;5.90;99.90;;;;;;1897063;74;21069;-74
2020/12/14 09:32:35;;;;;;;8.48;3.83;;;6.00;99.90;;;;;;1900092;75;21469;-74
2020/12/14 09:35:01;;;;;;;6.35;3.98;;;6.20;99.90;;;;;;1908765;74;21094;-75
2020/12/14 09:37:30;;;;;;;5.92;3.90;;;6.20;99.90;;;;;;1910528;74;21035;-75
2020/12/14 09:39:57;;;;;;;5.22;3.45;;;6.10;99.90;;;;;;1916207;74;21098;-75
2020/12/14 09:42:35;;;;;;;;;;;;;;;;;;;;;
2020/12/14 09:44:55;;;;;;;8.90;3.87;;;6.70;99.90;;;;;;1909139;74;21611;-76
2020/12/14 09:47:20;;;;;;;8.95;3.72;;;7.00;99.90;;;;;;1915964;74;21184;-74
2020/12/14 09:52:25;;;;;;;4.65;3.52;;;7.10;99.90;;;;;;1890762;74;21138;-75
2020/12/14 09:54:55;;;;;;;4.87;3.37;;;7.30;99.90;;;;;;1883547;75;21588;-76
2020/12/14 09:57:19;;;;;;;9.35;4.80;;;6.80;99.90;;;;;;1880448;74;21062;-75
2020/12/14 09:59:45;;;;;;;9.08;3.35;;;7.20;99.90;;;;;;1892472;75;21210;-75
2020/12/14 10:02:18;;;;;;;4.72;3.70;;;7.60;99.90;;;;;;1899543;74;22007;-75
2020/12/14 10:04:46;;;;;;;;;;;7.90;99.90;;;;;;1878427;74;21474;-75
2020/12/14 10:07:17;;;;;;;7.33;3.75;;;7.90;99.90;;;;;;1863921;74;20132;-75
2020/12/14 10:12:18;;;;;;;5.50;3.37;;;7.30;99.90;;;;;;1853676;76;21076;-74
2020/12/14 10:14:55;;;;;;;7.08;3.47;;;7.00;99.90;;;;;;1891684;74;21088;-74
2020/12/14 10:22:36;;;;;;;7.97;2.72;;;7.70;99.90;;;;;;1852009;76;21497;-75
2020/12/14 10:25:07;;;;;;;5.65;2.90;;;8.00;99.90;;;;;;1870034;76;21111;-76
2020/12/14 10:27:51;;;;;;;;;;;;;;;;;;;;;
2020/12/14 10:30:17;;;;;;;5.72;3.17;;;8.20;99.90;;;;;;1871217;73;21070;-74
2020/12/14 10:32:45;;;;;;;12.10;2.90;;;8.60;99.90;;;;;;1899914;75;21162;-74
2020/12/14 10:35:11;;;;;;;6.50;2.83;;;8.80;99.90;;;;;;1882627;75;21078;-75
2020/12/14 10:37:37;;;;;;;4.78;2.60;;;9.00;99.90;;;;;;1914377;74;21047;-75
2020/12/14 10:40:04;;;;;;;8.88;3.02;;;9.30;99.90;;;;;;1898188;74;21122;-74
2020/12/14 10:42:31;;;;;;;4.67;2.52;;;9.60;99.90;;;;;;1884453;74;21070;-74
2020/12/14 10:44:57;;;;;;;4.75;2.62;;;9.40;99.90;;;;;;1884528;74;21085;-75
2020/12/14 10:47:23;;;;;;;3.47;2.58;;;9.10;99.90;;;;;;1889830;74;21188;-76
2020/12/14 10:49:49;;;;;;;4.45;2.65;;;9.00;99.90;;;;;;1897848;74;21079;-75
2020/12/14 10:52:15;;;;;;;3.60;2.27;;;8.90;99.90;;;;;;1903653;74;21078;-75
2020/12/14 10:54:41;;;;;;;3.42;2.67;;;8.50;99.90;;;;;;1907418;74;21082;-75
2020/12/14 10:57:08;;;;;;;5.65;2.98;;;8.30;99.90;;;;;;1896880;74;21042;-74
2020/12/14 10:59:34;;;;;;;7.03;2.80;;;8.20;99.90;;;;;;1884586;74;21070;-74
2020/12/14 11:02:00;;;;;;;4.58;2.85;;;8.20;99.90;;;;;;1901200;74;21092;-75
2020/12/14 11:04:26;;;;;;;5.55;2.85;;;8.50;99.90;;;;;;1891487;74;21070;-74
2020/12/14 11:06:52;;;;;;;12.47;3.27;;;8.50;99.90;;;;;;1909612;74;21131;-75
2020/12/14 11:09:18;;;;;;;8.10;2.67;;;8.60;99.90;;;;;;1891452;74;21068;-75
2020/12/14 11:11:44;;;;;;;4.05;2.80;;;8.70;99.90;;;;;;1903055;74;21125;-74
2020/12/14 11:14:10;;;;;;;8.68;3.02;;;9.00;99.90;;;;;;1899676;74;21151;-74
2020/12/14 11:16:42;;;;;;;9.88;3.17;;;9.70;99.90;;;;;;1884468;74;21086;-75
2020/12/14 11:19:09;;;;;;;7.95;2.55;;;9.70;99.90;;;;;;1885233;74;21110;-74
2020/12/14 11:21:35;;;;;;;8.33;2.75;;;9.90;99.90;;;;;;1904791;74;21103;-74
2020/12/14 11:24:01;;;;;;;7.30;2.95;;;9.80;99.90;;;;;;1898204;74;21083;-74
2020/12/14 11:26:27;;;;;;;3.70;2.35;;;10.10;99.90;;;;;;1904777;74;21086;-74
2020/12/14 11:28:53;;;;;;;5.20;2.70;;;10.30;99.90;;;;;;1903606;74;21117;-74
2020/12/14 11:31:20;;;;;;;4.12;2.45;;;10.50;99.90;;;;;;1917615;74;21203;-74
2020/12/14 11:33:46;;;;;;;4.55;2.70;;;11.20;99.90;;;;;;1916650;74;21080;-75
2020/12/14 11:36:12;;;;;;;5.40;2.62;;;11.70;99.90;;;;;;1900400;74;21172;-75
2020/12/14 11:38:38;;;;;;;5.62;2.20;;;12.00;99.90;;;;;;1912417;74;21156;-74
2020/12/14 11:41:04;;;;;;;5.12;2.20;;;11.40;99.90;;;;;;1897910;74;21485;-73
2020/12/14 11:43:30;;;;;;;4.35;2.70;;;11.30;99.90;;;;;;1908929;74;21475;-74
2020/12/14 11:45:56;;;;;;;4.20;2.95;;;10.30;99.90;;;;;;1897193;74;21609;-73
2020/12/14 11:48:22;;;;;;;4.70;2.55;;;10.10;99.90;;;;;;1906632;74;21556;-75
2020/12/14 11:50:49;;;;;;;7.60;2.80;;;10.30;99.90;;;;;;1898848;74;21447;-74
2020/12/14 11:53:15;;;;;;;5.10;2.37;;;10.20;99.90;;;;;;1894290;74;21172;-75
2020/12/14 11:55:44;;;;;;;4.45;2.25;;;9.90;99.90;;;;;;1897970;74;21192;-76
2020/12/14 11:58:09;;;;;;;5.12;2.90;;;10.10;99.90;;;;;;1902468;74;21102;-75
2020/12/14 12:00:35;;;;;;;4.83;2.45;;;10.30;99.90;;;;;;1898396;74;21076;-75
2020/12/14 12:03:01;;;;;;;4.50;2.70;;;10.30;99.90;;;;;;1897935;74;21164;-75
2020/12/14 12:05:28;;;;;;;5.78;2.70;;;9.70;99.90;;;;;;1884719;74;21164;-75
2020/12/14 12:07:54;;;;;;;5.53;2.55;;;9.60;99.90;;;;;;1912479;74;21209;-75
2020/12/14 12:10:20;;;;;;;5.87;2.47;;;9.80;99.90;;;;;;1915850;74;21620;-76
2020/12/14 12:12:46;;;;;;;5.03;2.58;;;9.80;99.90;;;;;;1906810;74;21082;-74
2020/12/14 12:15:15;;;;;;;5.95;3.08;;;9.70;99.90;;;;;;1900902;74;21047;-74
2020/12/14 12:17:40;;;;;;;6.12;2.77;;;9.60;99.90;;;;;;1904594;74;21522;-74
2020/12/14 12:20:06;;;;;;;5.75;2.85;;;9.40;99.90;;;;;;1901851;74;21501;-74
2020/12/14 12:22:33;;;;;;;5.83;2.80;;;9.40;99.90;;;;;;1898059;74;21501;-74
2020/12/14 12:24:59;;;;;;;9.08;3.35;;;9.50;99.90;;;;;;1915086;74;21522;-74
2020/12/14 12:27:25;;;;;;;4.92;2.40;;;9.40;99.90;;;;;;1912394;74;21055;-75
2020/12/14 12:29:51;;;;;;;6.70;2.25;;;9.60;99.90;;;;;;1884498;74;21077;-74
2020/12/14 12:32:17;;;;;;;2.62;1.70;;;9.90;99.90;;;;;;1898887;74;21197;-73
2020/12/14 12:34:43;;;;;;;5.00;2.08;;;10.60;99.90;;;;;;1895610;74;21247;-74
2020/12/14 12:37:09;;;;;;;4.50;2.10;;;10.70;99.90;;;;;;1904733;74;21090;-74
2020/12/14 12:39:35;;;;;;;5.58;2.40;;;10.80;99.90;;;;;;1895747;75;21133;-73
2020/12/14 12:42:02;;;;;;;3.90;1.95;;;10.90;99.90;;;;;;1884255;74;21048;-73
2020/12/14 12:44:28;;;;;;;3.67;2.22;;;10.90;99.90;;;;;;1887319;74;21081;-73
2020/12/14 12:46:54;;;;;;;5.20;2.33;;;11.30;99.90;;;;;;1913887;74;21199;-74
2020/12/14 12:49:20;;;;;;;4.08;1.90;;;11.10;99.90;;;;;;1898691;74;21205;-73
2020/12/14 12:51:46;;;;;;;6.95;2.22;;;10.90;99.90;;;;;;1906272;74;21435;-74
2020/12/14 12:54:12;;;;;;;4.75;2.20;;;10.90;99.90;;;;;;1892959;74;21494;-73
2020/12/14 12:56:38;;;;;;;3.60;2.10;;;11.00;99.90;;;;;;1888199;74;21525;-73
2020/12/14 12:59:04;;;;;;;13.28;2.17;;;11.00;99.90;;;;;;1905392;75;21588;-73
2020/12/14 13:01:31;;;;;;;2.90;1.77;;;10.90;99.90;;;;;;1900855;74;21569;-74
2020/12/14 13:03:57;;;;;;;2.67;1.77;;;11.00;99.90;;;;;;1909126;74;21083;-74